Time;durP1;ratioP1;P1;durP2;ratioP2;P2;SDS_P1;SDS_P2;PMS_P1;PMS_P2;Temp;Humidity;BMP_temperature;BMP_pressure;BME280_temperature;BME280_humidity;BME280_pressure;Samples;Min_cycle;Max_cycle;Signal;HPM_P1;HPM_P2
2023/07/03 00:01:15;;;;;;;18.73;8.25;;;15.00;99.90;;;;;;7380650;19;20017;-67
2023/07/03 00:03:41;;;;;;;23.80;9.15;;;15.00;99.90;;;;;;7377955;19;20015;-66
2023/07/03 00:06:08;;;;;;;19.27;7.45;;;15.00;99.90;;;;;;7377253;19;20029;-67
2023/07/03 00:08:34;;;;;;;20.73;8.43;;;15.00;99.90;;;;;;7379381;19;20094;-67
2023/07/03 00:11:04;;;;;;;19.50;7.82;;;15.00;99.90;;;;;;7377072;19;20026;-67
2023/07/03 00:13:31;;;;;;;20.48;8.15;;;15.00;99.90;;;;;;7379210;19;20701;-68
2023/07/03 00:15:59;;;;;;;23.63;7.80;;;15.10;99.90;;;;;;7379251;19;20026;-67
2023/07/03 00:18:28;;;;;;;20.00;6.72;;;15.10;99.90;;;;;;7379847;19;20026;-66
2023/07/03 00:20:54;;;;;;;23.25;6.90;;;15.10;99.90;;;;;;7381211;19;20010;-58
2023/07/03 00:23:22;;;;;;;21.63;7.28;;;15.10;99.90;;;;;;7380116;19;20117;-59
2023/07/03 00:25:49;;;;;;;21.25;7.65;;;15.10;99.90;;;;;;7375822;19;20234;-58
2023/07/03 00:28:16;;;;;;;20.08;8.00;;;15.20;99.90;;;;;;7380068;19;20006;-67
2023/07/03 00:30:43;;;;;;;22.58;8.73;;;15.20;99.90;;;;;;7382101;19;20034;-58
2023/07/03 00:33:11;;;;;;;18.90;7.78;;;15.20;99.90;;;;;;7380481;19;20022;-58
2023/07/03 00:35:39;;;;;;;18.90;7.95;;;15.20;99.90;;;;;;7381547;19;20058;-58
2023/07/03 00:38:05;;;;;;;20.92;7.68;;;15.20;99.90;;;;;;7377835;19;20029;-58
2023/07/03 00:40:32;;;;;;;18.20;7.57;;;15.20;99.90;;;;;;7376839;19;20014;-58
2023/07/03 00:42:59;;;;;;;20.27;6.88;;;15.20;99.90;;;;;;7381141;19;20022;-58
2023/07/03 00:45:26;;;;;;;22.35;7.45;;;15.20;99.90;;;;;;7377129;19;20026;-58
2023/07/03 00:47:53;;;;;;;24.13;7.47;;;15.20;99.90;;;;;;7379185;19;20114;-59
2023/07/03 00:50:20;;;;;;;19.17;7.00;;;15.20;99.90;;;;;;7378118;19;20017;-58
2023/07/03 00:52:51;;;;;;;21.30;6.97;;;15.20;99.90;;;;;;7376365;19;20398;-59
2023/07/03 00:55:19;;;;;;;22.27;7.95;;;15.20;99.90;;;;;;7377451;19;20053;-58
2023/07/03 00:57:46;;;;;;;27.75;8.27;;;15.20;99.90;;;;;;7378941;19;20658;-61
2023/07/03 01:00:13;;;;;;;18.08;6.35;;;15.20;99.90;;;;;;7375254;19;20022;-58
2023/07/03 01:02:50;;;;;;;19.60;6.82;;;15.30;99.90;;;;;;7373977;19;20018;-58
2023/07/03 01:05:29;;;;;;;26.65;7.30;;;15.30;99.90;;;;;;7373973;19;20048;-58
2023/07/03 01:07:57;;;;;;;24.10;7.22;;;15.40;99.90;;;;;;7373697;19;20019;-58
2023/07/03 01:10:24;;;;;;;20.08;6.70;;;15.40;99.90;;;;;;7372406;19;20025;-58
2023/07/03 01:12:56;;;;;;;20.33;7.15;;;15.40;99.90;;;;;;7375998;19;20018;-58
2023/07/03 01:15:26;;;;;;;23.25;7.13;;;15.40;99.90;;;;;;7377436;19;20043;-67
2023/07/03 01:17:56;;;;;;;23.70;6.88;;;15.40;99.90;;;;;;7376291;19;20022;-68
2023/07/03 01:20:24;;;;;;;20.98;6.75;;;15.50;99.90;;;;;;7379281;19;20018;-68
2023/07/03 01:23:13;;;;;;;22.88;7.72;;;15.50;99.90;;;;;;7378656;19;20115;-68
2023/07/03 01:25:42;;;;;;;20.60;6.97;;;15.50;99.90;;;;;;7380752;19;20611;-67
2023/07/03 01:28:12;;;;;;;23.20;7.47;;;15.50;99.90;;;;;;7379360;19;20522;-68
2023/07/03 01:30:41;;;;;;;22.65;6.80;;;15.50;99.90;;;;;;7375064;19;20029;-68
2023/07/03 01:33:12;;;;;;;21.40;7.10;;;15.50;99.90;;;;;;7378467;19;20022;-68
2023/07/03 01:35:40;;;;;;;23.15;7.80;;;15.50;99.90;;;;;;7376222;19;20018;-68
2023/07/03 01:38:08;;;;;;;17.02;6.13;;;15.50;99.90;;;;;;7374776;19;20019;-67
2023/07/03 01:40:34;;;;;;;18.73;7.30;;;15.50;99.90;;;;;;7378105;19;20022;-68
2023/07/03 01:43:02;;;;;;;23.77;7.72;;;15.50;99.90;;;;;;7379723;19;20018;-59
2023/07/03 01:45:28;;;;;;;26.20;6.97;;;15.50;99.90;;;;;;7377077;19;20501;-59
2023/07/03 01:47:56;;;;;;;22.40;7.20;;;15.50;99.90;;;;;;7378694;19;20566;-59
2023/07/03 01:50:26;;;;;;;21.45;6.97;;;15.60;99.90;;;;;;7377692;19;20014;-59
2023/07/03 01:52:54;;;;;;;22.10;8.30;;;15.60;99.90;;;;;;7377188;19;20568;-59
2023/07/03 01:55:30;;;;;;;27.90;7.72;;;15.60;99.90;;;;;;7370151;19;20057;-60
2023/07/03 01:58:04;;;;;;;26.50;7.95;;;15.60;99.90;;;;;;7380771;19;20022;-68
2023/07/03 02:00:48;;;;;;;22.08;7.63;;;15.60;99.90;;;;;;7379448;19;20018;-70
2023/07/03 02:03:31;;;;;;;24.20;7.05;;;15.60;99.90;;;;;;7377290;19;20033;-67
2023/07/03 02:06:02;;;;;;;25.30;7.65;;;15.60;99.90;;;;;;7379859;19;20022;-67
2023/07/03 02:08:31;;;;;;;25.38;7.00;;;15.60;99.90;;;;;;7384994;19;20484;-67
2023/07/03 02:10:58;;;;;;;27.95;7.60;;;15.60;99.90;;;;;;7382470;19;20440;-59
2023/07/03 02:13:24;;;;;;;25.52;7.95;;;15.50;99.90;;;;;;7381295;19;20756;-58
2023/07/03 02:15:52;;;;;;;20.10;6.75;;;15.50;99.90;;;;;;7383457;19;20022;-58
2023/07/03 02:18:20;;;;;;;27.45;7.90;;;15.60;99.90;;;;;;7382030;19;20100;-67
2023/07/03 02:20:51;;;;;;;20.17;6.63;;;15.60;99.90;;;;;;7380582;19;20051;-67
2023/07/03 02:23:17;;;;;;;24.90;7.50;;;15.60;99.90;;;;;;7376218;19;20010;-67
2023/07/03 02:25:45;;;;;;;28.70;7.25;;;15.60;99.90;;;;;;7372517;19;20018;-67
2023/07/03 02:28:12;;;;;;;28.45;7.50;;;15.60;99.90;;;;;;7381960;19;20015;-67
2023/07/03 02:30:38;;;;;;;20.98;6.95;;;15.50;99.90;;;;;;7378308;19;20023;-58
2023/07/03 02:33:04;;;;;;;25.85;6.95;;;15.50;99.90;;;;;;7380084;19;22214;-68
2023/07/03 02:35:30;;;;;;;26.13;7.10;;;15.50;99.90;;;;;;7376888;19;20022;-67
2023/07/03 02:37:58;;;;;;;23.33;6.55;;;15.50;99.90;;;;;;7382470;19;20658;-60
2023/07/03 02:40:24;;;;;;;22.95;6.78;;;15.50;99.90;;;;;;7383586;19;20444;-68
2023/07/03 02:42:50;;;;;;;28.00;8.63;;;15.50;99.90;;;;;;7383836;19;20019;-69
2023/07/03 02:45:19;;;;;;;19.20;6.50;;;15.50;99.90;;;;;;7382697;19;20023;-69
2023/07/03 02:47:46;;;;;;;22.40;6.82;;;15.50;99.90;;;;;;7384049;19;20077;-69
2023/07/03 02:50:15;;;;;;;28.00;7.97;;;15.50;99.90;;;;;;7382446;19;20121;-68
2023/07/03 02:52:41;;;;;;;27.80;9.13;;;15.50;99.90;;;;;;7381156;19;20011;-68
2023/07/03 02:55:09;;;;;;;28.13;7.65;;;15.50;99.90;;;;;;7381650;19;20180;-60
2023/07/03 02:57:35;;;;;;;23.33;6.88;;;15.50;99.90;;;;;;7382980;19;20015;-59
2023/07/03 03:00:02;;;;;;;26.42;6.97;;;15.50;99.90;;;;;;7382461;19;20026;-59
2023/07/03 03:02:30;;;;;;;22.02;6.57;;;15.50;99.90;;;;;;7385365;19;20531;-60
2023/07/03 03:04:56;;;;;;;22.00;7.70;;;15.50;99.90;;;;;;7378462;19;21494;-60
2023/07/03 03:07:23;;;;;;;23.50;7.15;;;15.50;99.90;;;;;;7378403;19;20019;-60
2023/07/03 03:09:49;;;;;;;20.60;7.40;;;15.50;99.90;;;;;;7381206;19;20611;-60
2023/07/03 03:12:16;;;;;;;21.98;7.38;;;15.40;99.90;;;;;;7379869;19;20412;-60
2023/07/03 03:14:42;;;;;;;21.00;6.45;;;15.40;99.90;;;;;;7379723;19;20048;-69
2023/07/03 03:17:08;;;;;;;24.27;6.50;;;15.40;99.90;;;;;;7380339;19;20046;-69
2023/07/03 03:19:35;;;;;;;22.50;6.15;;;15.40;99.90;;;;;;7382331;19;20862;-60
2023/07/03 03:22:01;;;;;;;22.15;6.78;;;15.40;99.90;;;;;;7379724;19;20026;-60
2023/07/03 03:24:27;;;;;;;15.02;5.15;;;15.30;99.90;;;;;;7380830;19;20018;-60
2023/07/03 03:26:54;;;;;;;14.25;5.90;;;15.30;99.90;;;;;;7375541;19;20018;-60
2023/07/03 03:29:20;;;;;;;18.23;4.85;;;15.20;99.90;;;;;;7380973;19;20026;-60
2023/07/03 03:31:46;;;;;;;19.88;5.80;;;15.20;99.90;;;;;;7378084;19;20014;-59
2023/07/03 03:34:13;;;;;;;13.70;4.85;;;15.10;99.90;;;;;;7380718;19;20033;-68
2023/07/03 03:36:39;;;;;;;15.68;4.90;;;15.00;99.90;;;;;;7380622;19;20018;-60
2023/07/03 03:39:07;;;;;;;14.95;4.80;;;15.00;99.90;;;;;;7377548;19;20864;-69
2023/07/03 03:41:35;;;;;;;14.38;4.93;;;14.90;99.90;;;;;;7378304;19;20026;-70
2023/07/03 03:44:01;;;;;;;12.18;4.20;;;14.80;99.90;;;;;;7379004;19;20756;-69
2023/07/03 03:46:28;;;;;;;14.85;4.35;;;14.80;99.90;;;;;;7378830;19;20019;-69
2023/07/03 03:48:54;;;;;;;15.63;4.10;;;14.70;99.90;;;;;;7380155;19;20042;-68
2023/07/03 03:51:21;;;;;;;14.98;4.72;;;14.50;99.90;;;;;;7367598;19;20018;-68
2023/07/03 03:53:48;;;;;;;13.70;4.20;;;14.50;99.90;;;;;;7375475;19;20014;-68
2023/07/03 03:56:14;;;;;;;16.23;3.88;;;14.50;99.90;;;;;;7375525;19;20007;-68
2023/07/03 03:58:41;;;;;;;14.73;4.10;;;14.40;99.90;;;;;;7377520;19;20057;-69
2023/07/03 04:01:08;;;;;;;9.63;3.20;;;14.40;99.90;;;;;;7376040;19;20496;-59
2023/07/03 04:03:35;;;;;;;11.70;3.42;;;14.30;99.90;;;;;;7381902;19;20664;-59
2023/07/03 04:06:01;;;;;;;15.23;3.47;;;14.30;99.90;;;;;;7377631;19;20027;-59
2023/07/03 04:08:27;;;;;;;14.65;3.80;;;14.30;99.90;;;;;;7379497;19;20503;-68
2023/07/03 04:10:53;;;;;;;11.25;4.18;;;14.20;99.90;;;;;;7377057;19;20053;-69
2023/07/03 04:13:20;;;;;;;13.40;3.90;;;14.20;99.90;;;;;;7378160;19;20105;-68
2023/07/03 04:15:56;;;;;;;11.77;3.55;;;14.20;99.90;;;;;;7377899;19;20799;-69
2023/07/03 04:18:23;;;;;;;13.45;4.30;;;14.20;99.90;;;;;;7377942;19;20457;-67
2023/07/03 04:20:50;;;;;;;18.95;4.13;;;14.10;99.90;;;;;;7382727;19;20058;-68
2023/07/03 04:23:17;;;;;;;12.80;3.47;;;14.10;99.90;;;;;;7377815;19;20078;-59
2023/07/03 04:25:43;;;;;;;16.05;3.30;;;14.20;99.90;;;;;;7380465;19;20022;-59
2023/07/03 04:28:15;;;;;;;13.90;3.63;;;14.20;99.90;;;;;;7374072;19;20018;-59
2023/07/03 04:30:41;;;;;;;11.93;3.47;;;14.20;99.90;;;;;;7372220;19;20050;-58
2023/07/03 04:33:08;;;;;;;16.08;4.10;;;14.30;99.90;;;;;;7371412;19;20394;-59
2023/07/03 04:35:36;;;;;;;11.30;3.70;;;14.30;99.90;;;;;;7373372;19;20039;-61
2023/07/03 04:38:03;;;;;;;12.80;3.50;;;14.40;99.90;;;;;;7373027;19;20014;-67
2023/07/03 04:40:31;;;;;;;9.35;3.08;;;14.40;99.90;;;;;;7374839;19;20074;-68
2023/07/03 04:42:57;;;;;;;12.52;3.80;;;14.50;99.90;;;;;;7375857;19;20123;-68
2023/07/03 04:45:26;;;;;;;12.38;2.88;;;14.60;99.90;;;;;;7373825;19;20010;-68
2023/07/03 04:47:53;;;;;;;12.32;3.50;;;14.70;99.90;;;;;;7377540;19;20671;-68
2023/07/03 04:50:24;;;;;;;9.00;2.63;;;14.80;99.90;;;;;;7376298;19;20041;-68
2023/07/03 04:52:52;;;;;;;11.50;3.10;;;14.80;99.90;;;;;;7376429;19;20023;-68
2023/07/03 04:55:18;;;;;;;13.30;2.30;;;15.00;99.90;;;;;;7376653;19;20116;-58
2023/07/03 04:57:45;;;;;;;9.50;2.65;;;15.00;99.90;;;;;;7376922;19;20014;-61
2023/07/03 05:00:15;;;;;;;10.93;2.45;;;15.10;99.90;;;;;;7375520;19;20501;-64
2023/07/03 05:02:46;;;;;;;10.45;2.88;;;15.10;99.90;;;;;;7376558;19;20802;-61
2023/07/03 05:05:13;;;;;;;9.82;2.50;;;15.20;99.90;;;;;;7377086;19;20347;-62
2023/07/03 05:07:40;;;;;;;9.10;2.08;;;15.30;99.90;;;;;;7375497;19;20026;-61
2023/07/03 05:10:08;;;;;;;13.55;2.70;;;15.40;99.90;;;;;;7372974;19;20022;-61
2023/07/03 05:12:36;;;;;;;10.45;2.80;;;15.50;99.90;;;;;;7372164;19;20018;-62
2023/07/03 05:15:04;;;;;;;12.05;2.58;;;15.60;99.90;;;;;;7368445;19;20492;-61
2023/07/03 05:17:32;;;;;;;9.45;2.92;;;15.60;99.90;;;;;;7377863;19;20585;-61
2023/07/03 05:19:58;;;;;;;13.63;2.40;;;15.60;99.90;;;;;;7376725;19;20018;-66
2023/07/03 05:22:25;;;;;;;10.00;2.60;;;15.50;99.90;;;;;;7371644;19;20022;-66
2023/07/03 05:24:51;;;;;;;10.43;2.45;;;15.60;99.90;;;;;;7370687;19;20018;-66
2023/07/03 05:27:17;;;;;;;10.30;2.38;;;15.60;99.90;;;;;;7375423;19;20014;-66
2023/07/03 05:29:43;;;;;;;10.40;2.25;;;15.70;99.90;;;;;;7375171;19;20029;-65
2023/07/03 05:32:10;;;;;;;10.13;2.55;;;15.90;99.90;;;;;;7375360;19;20022;-65
2023/07/03 05:34:38;;;;;;;7.35;2.30;;;16.20;99.90;;;;;;7375940;19;20034;-66
2023/07/03 05:37:05;;;;;;;11.40;2.25;;;16.50;99.90;;;;;;7367429;19;20481;-65
2023/07/03 05:39:32;;;;;;;11.50;2.30;;;16.80;99.90;;;;;;7368016;19;20082;-66
2023/07/03 05:42:01;;;;;;;8.93;2.22;;;16.90;99.90;;;;;;7370612;19;20592;-66
2023/07/03 05:44:27;;;;;;;7.05;1.83;;;17.10;99.90;;;;;;7371905;19;21059;-66
2023/07/03 05:46:54;;;;;;;11.30;2.88;;;17.30;99.90;;;;;;7373396;19;20015;-66
2023/07/03 05:49:20;;;;;;;9.15;2.20;;;17.30;99.90;;;;;;7372743;19;20014;-66
2023/07/03 05:51:46;;;;;;;7.22;1.70;;;17.40;99.90;;;;;;7374735;19;20022;-66
2023/07/03 05:54:15;;;;;;;9.05;2.00;;;17.60;99.90;;;;;;7369918;19;20640;-62
2023/07/03 05:56:43;;;;;;;10.10;2.70;;;17.70;99.90;;;;;;7376113;19;20098;-60
2023/07/03 05:59:09;;;;;;;9.80;2.55;;;17.80;99.90;;;;;;7363221;19;20018;-61
2023/07/03 06:01:35;;;;;;;11.13;2.63;;;18.00;99.90;;;;;;7377222;19;20018;-60
2023/07/03 06:04:02;;;;;;;13.20;2.70;;;18.20;99.90;;;;;;7374362;19;20049;-65
2023/07/03 06:06:28;;;;;;;13.45;2.88;;;18.20;99.90;;;;;;7373660;19;20015;-60
2023/07/03 06:08:55;;;;;;;10.02;2.88;;;18.40;99.90;;;;;;7373118;19;20031;-65
2023/07/03 06:11:21;;;;;;;10.20;2.70;;;18.40;99.90;;;;;;7376045;19;20693;-66
2023/07/03 06:13:47;;;;;;;13.05;3.25;;;18.70;99.90;;;;;;7373908;19;20807;-65
2023/07/03 06:16:13;;;;;;;8.05;2.10;;;18.70;99.90;;;;;;7371690;19;20122;-66
2023/07/03 06:18:39;;;;;;;9.48;2.45;;;18.90;99.90;;;;;;7365134;19;20361;-68
2023/07/03 06:21:06;;;;;;;9.10;2.60;;;18.90;99.90;;;;;;7366133;19;20027;-61
2023/07/03 06:23:35;;;;;;;10.60;2.47;;;18.80;99.90;;;;;;7367872;19;20006;-62
2023/07/03 06:26:01;;;;;;;12.88;3.38;;;18.90;99.90;;;;;;7374640;19;20474;-65
2023/07/03 06:28:27;;;;;;;10.02;2.13;;;19.00;99.90;;;;;;7376669;19;20070;-65
2023/07/03 06:30:53;;;;;;;10.25;2.22;;;18.70;99.90;;;;;;7376455;19;20399;-67
2023/07/03 06:33:19;;;;;;;11.63;2.53;;;18.60;99.90;;;;;;7374332;19;20022;-66
2023/07/03 06:35:47;;;;;;;10.57;2.38;;;18.60;99.90;;;;;;7374298;19;20537;-66
2023/07/03 06:38:13;;;;;;;10.23;2.03;;;18.50;99.90;;;;;;7369902;19;20026;-66
2023/07/03 06:40:40;;;;;;;7.85;2.60;;;18.40;99.90;;;;;;7372050;19;20014;-65
2023/07/03 06:43:06;;;;;;;9.13;2.58;;;18.40;99.90;;;;;;7372357;19;20025;-65
2023/07/03 06:45:36;;;;;;;12.13;2.92;;;18.60;99.90;;;;;;7380579;19;20031;-61
2023/07/03 06:48:03;;;;;;;12.38;2.97;;;18.90;99.90;;;;;;7379054;19;20593;-62
2023/07/03 06:50:30;;;;;;;14.13;2.65;;;19.10;99.90;;;;;;7380634;19;20032;-62
2023/07/03 06:52:56;;;;;;;10.15;2.33;;;19.20;99.90;;;;;;7380170;19;20018;-62
2023/07/03 06:55:22;;;;;;;8.80;2.53;;;19.40;99.90;;;;;;7381941;19;20041;-61
2023/07/03 06:57:48;;;;;;;12.75;2.40;;;19.50;99.90;;;;;;7378721;19;20029;-62
2023/07/03 07:00:15;;;;;;;8.65;2.13;;;19.50;99.90;;;;;;7382619;19;20427;-62
2023/07/03 07:02:42;;;;;;;9.63;2.55;;;19.40;99.90;;;;;;7380921;19;20029;-68
2023/07/03 07:05:08;;;;;;;8.48;2.10;;;19.60;99.90;;;;;;7382272;19;20018;-62
2023/07/03 07:07:34;;;;;;;11.07;2.70;;;19.90;99.90;;;;;;7376028;19;20504;-65
2023/07/03 07:10:01;;;;;;;11.38;2.42;;;19.60;99.90;;;;;;7380382;19;20029;-62
2023/07/03 07:12:27;;;;;;;8.13;2.47;;;19.50;99.90;;;;;;7380180;19;20034;-60
2023/07/03 07:14:56;;;;;;;8.90;2.20;;;19.40;99.90;;;;;;7379499;19;20030;-61
2023/07/03 07:17:22;;;;;;;7.90;2.00;;;19.30;99.90;;;;;;7377554;19;20014;-61
2023/07/03 07:19:49;;;;;;;7.60;2.20;;;19.10;99.90;;;;;;7381401;19;20449;-60
2023/07/03 07:22:15;;;;;;;7.10;1.80;;;18.80;99.90;;;;;;7377254;19;20025;-60
2023/07/03 07:24:42;;;;;;;10.82;2.20;;;18.70;99.90;;;;;;7381788;19;20018;-61
2023/07/03 07:27:08;;;;;;;7.30;1.92;;;18.70;99.90;;;;;;7375178;19;20101;-62
2023/07/03 07:29:34;;;;;;;11.20;2.78;;;19.00;99.90;;;;;;7378194;19;20028;-64
2023/07/03 07:32:00;;;;;;;8.65;1.92;;;19.20;99.90;;;;;;7381949;19;20029;-64
2023/07/03 07:34:26;;;;;;;9.18;2.60;;;19.30;99.90;;;;;;7380710;19;20022;-61
2023/07/03 07:36:53;;;;;;;9.48;2.42;;;19.40;99.90;;;;;;7378269;19;20591;-60
2023/07/03 07:39:20;;;;;;;9.27;2.00;;;19.60;99.90;;;;;;7378973;19;20098;-61
2023/07/03 07:41:46;;;;;;;8.90;1.88;;;19.60;99.90;;;;;;7381619;19;20331;-61
2023/07/03 07:44:13;;;;;;;7.00;1.75;;;19.70;99.90;;;;;;7379835;19;20070;-60
2023/07/03 07:46:40;;;;;;;8.60;1.90;;;19.40;99.90;;;;;;7375504;19;20015;-64
2023/07/03 07:49:06;;;;;;;11.57;2.17;;;19.60;99.90;;;;;;7381113;19;20040;-64
2023/07/03 07:51:32;;;;;;;7.78;1.83;;;19.70;99.90;;;;;;7380932;19;20017;-65
2023/07/03 07:53:59;;;;;;;7.78;1.92;;;20.00;99.90;;;;;;7378948;19;20042;-62
2023/07/03 07:56:27;;;;;;;7.95;2.00;;;20.20;99.90;;;;;;7377162;19;20057;-61
2023/07/03 07:58:54;;;;;;;9.20;2.70;;;20.50;99.90;;;;;;7379536;19;20018;-66
2023/07/03 08:01:20;;;;;;;10.02;1.90;;;20.30;99.90;;;;;;7376459;19;20381;-61
2023/07/03 08:03:46;;;;;;;6.65;1.70;;;20.00;99.90;;;;;;7375382;19;20026;-61
2023/07/03 08:06:14;;;;;;;6.05;1.70;;;19.60;99.90;;;;;;7376584;19;20103;-61
2023/07/03 08:08:40;;;;;;;6.38;1.70;;;19.70;99.90;;;;;;7379546;19;20061;-61
2023/07/03 08:11:08;;;;;;;7.93;2.00;;;20.10;99.90;;;;;;7376306;19;20011;-61
2023/07/03 08:13:35;;;;;;;9.45;2.03;;;20.60;99.90;;;;;;7379466;19;20082;-61
2023/07/03 08:16:01;;;;;;;9.00;2.33;;;21.00;99.90;;;;;;7378660;19;20533;-61
2023/07/03 08:18:31;;;;;;;5.40;1.45;;;21.20;99.90;;;;;;7380314;19;20493;-61
2023/07/03 08:20:57;;;;;;;5.00;1.55;;;21.20;97.70;;;;;;7379593;19;20034;-61
2023/07/03 08:23:24;;;;;;;6.35;1.45;;;21.40;97.00;;;;;;7377328;19;20010;-61
2023/07/03 08:25:52;;;;;;;7.30;1.40;;;21.60;96.70;;;;;;7378255;19;20042;-61
2023/07/03 08:28:18;;;;;;;5.75;1.38;;;21.50;95.80;;;;;;7379059;19;20007;-61
2023/07/03 08:30:44;;;;;;;5.57;1.50;;;21.50;94.80;;;;;;7377845;19;20018;-61
2023/07/03 08:33:12;;;;;;;6.32;1.90;;;21.50;96.10;;;;;;7377165;19;20374;-61
2023/07/03 08:35:39;;;;;;;4.20;1.33;;;20.90;94.40;;;;;;7381137;19;20015;-66
2023/07/03 08:38:06;;;;;;;8.00;1.45;;;20.60;94.60;;;;;;7376463;19;20475;-63
2023/07/03 08:40:32;;;;;;;5.60;1.13;;;20.20;95.70;;;;;;7383408;19;20363;-63
2023/07/03 08:43:00;;;;;;;3.78;1.08;;;20.60;96.40;;;;;;7383525;19;20030;-68
2023/07/03 08:45:36;;;;;;;5.40;1.05;;;20.90;94.60;;;;;;7376451;19;20040;-60
2023/07/03 08:48:08;;;;;;;5.70;1.70;;;21.20;93.20;;;;;;7377665;19;20051;-60
2023/07/03 08:50:35;;;;;;;8.63;1.40;;;21.40;92.30;;;;;;7373120;19;20014;-59
2023/07/03 08:53:03;;;;;;;5.97;1.52;;;20.90;91.50;;;;;;7377260;19;20020;-60
2023/07/03 08:55:42;;;;;;;6.35;1.85;;;20.80;92.90;;;;;;7375892;19;20014;-60
2023/07/03 08:58:09;;;;;;;5.57;1.27;;;20.30;92.20;;;;;;7379965;19;20023;-60
2023/07/03 09:01:02;;;;;;;5.15;1.30;;;19.90;93.80;;;;;;7381126;19;20401;-63
2023/07/03 09:03:40;;;;;;;6.07;1.33;;;19.80;95.30;;;;;;7379281;19;20078;-63
2023/07/03 09:06:15;;;;;;;3.72;1.17;;;19.40;95.10;;;;;;7377369;19;20018;-63
2023/07/03 09:08:58;;;;;;;7.55;1.40;;;19.30;95.40;;;;;;7375805;19;20022;-63
2023/07/03 09:11:27;;;;;;;6.88;1.50;;;19.30;95.70;;;;;;7376295;19;20486;-63
2023/07/03 09:13:57;;;;;;;5.07;1.42;;;19.20;96.20;;;;;;7380967;19;20596;-63
2023/07/03 09:16:24;;;;;;;2.90;1.27;;;19.30;96.60;;;;;;7374824;19;20024;-63
2023/07/03 09:19:16;;;;;;;5.13;1.73;;;19.30;96.10;;;;;;7377805;19;20019;-63
2023/07/03 09:21:44;;;;;;;9.27;1.80;;;19.20;95.60;;;;;;7377166;19;20014;-63
2023/07/03 09:24:24;;;;;;;6.70;1.55;;;19.40;95.80;;;;;;7376231;19;20086;-65
2023/07/03 09:27:10;;;;;;;5.78;1.65;;;19.40;95.80;;;;;;7375438;19;20514;-60
2023/07/03 09:29:38;;;;;;;5.50;1.60;;;19.30;95.60;;;;;;7374858;19;20423;-60
2023/07/03 09:32:24;;;;;;;6.10;1.48;;;19.30;95.90;;;;;;7376776;19;21292;-59
2023/07/03 09:35:21;;;;;;;7.47;1.55;;;19.40;96.50;;;;;;7376433;19;20485;-60
2023/07/03 09:37:58;;;;;;;8.98;2.05;;;20.40;97.50;;;;;;7374923;19;20122;-59
2023/07/03 09:40:33;;;;;;;6.43;1.48;;;21.30;95.30;;;;;;7376673;19;20014;-59
2023/07/03 09:43:00;;;;;;;4.85;1.10;;;21.10;93.60;;;;;;7376187;19;20049;-60
2023/07/03 09:45:33;;;;;;;7.63;1.92;;;20.60;92.60;;;;;;7374369;19;20014;-60
2023/07/03 09:48:10;;;;;;;5.47;1.80;;;20.40;92.20;;;;;;7378044;19;20063;-60
2023/07/03 09:50:38;;;;;;;7.38;1.42;;;20.00;91.80;;;;;;7374553;19;20026;-59
2023/07/03 09:53:05;;;;;;;3.60;1.42;;;20.00;93.30;;;;;;7372345;19;20053;-62
2023/07/03 09:55:34;;;;;;;6.50;1.50;;;19.80;93.80;;;;;;7374452;19;20051;-63
2023/07/03 09:58:11;;;;;;;7.68;1.75;;;20.50;93.90;;;;;;7377040;19;20047;-62
2023/07/03 10:00:54;;;;;;;5.55;1.67;;;21.10;92.00;;;;;;7375225;19;20055;-59
2023/07/03 10:03:32;;;;;;;6.20;2.53;;;21.10;91.40;;;;;;7374760;19;20022;-59
2023/07/03 10:06:18;;;;;;;3.45;1.40;;;21.10;91.70;;;;;;7367919;19;20853;-63
2023/07/03 10:08:49;;;;;;;4.68;1.20;;;20.90;87.70;;;;;;7373980;19;20011;-60
2023/07/03 10:11:28;;;;;;;3.30;1.17;;;21.00;89.30;;;;;;7372968;19;20489;-60
2023/07/03 10:13:55;;;;;;;4.90;1.45;;;21.20;90.50;;;;;;7375683;19;20078;-63
2023/07/03 10:16:23;;;;;;;6.15;1.52;;;21.50;87.10;;;;;;7375963;19;20033;-63
2023/07/03 10:18:55;;;;;;;6.45;1.50;;;21.60;84.70;;;;;;7375979;19;20010;-63
2023/07/03 10:21:21;;;;;;;;;;;21.30;82.90;;;;;;7378973;19;20828;-63
2023/07/03 10:23:48;;;;;;;5.72;1.67;;;21.00;83.50;;;;;;7381635;19;20628;-63
2023/07/03 10:26:31;;;;;;;7.00;1.10;;;21.00;85.40;;;;;;7379124;19;20025;-63
2023/07/03 10:29:11;;;;;;;5.85;1.50;;;21.00;85.60;;;;;;7375171;19;20584;-59
2023/07/03 10:32:03;;;;;;;6.03;1.10;;;21.10;84.70;;;;;;7377571;19;20006;-59
2023/07/03 10:34:47;;;;;;;7.57;1.77;;;20.70;86.30;;;;;;7381474;19;20142;-59
2023/07/03 10:37:17;;;;;;;6.68;1.75;;;20.50;87.80;;;;;;7379813;19;20050;-63
2023/07/03 10:40:17;;;;;;;7.28;1.52;;;20.50;88.50;;;;;;7384628;19;20102;-63
2023/07/03 10:42:53;;;;;;;5.55;1.30;;;20.20;89.00;;;;;;7381370;19;20033;-63
2023/07/03 10:45:21;;;;;;;4.88;1.73;;;19.90;89.50;;;;;;7384340;19;20756;-63
2023/07/03 10:47:50;;;;;;;8.00;1.48;;;19.90;90.60;;;;;;7382333;19;20025;-63
2023/07/03 10:50:27;;;;;;;6.03;1.20;;;19.80;89.70;;;;;;7385820;19;20634;-63
2023/07/03 10:53:15;;;;;;;4.55;1.50;;;20.40;90.50;;;;;;7384597;19;20893;-63
2023/07/03 10:56:29;;;;;;;5.30;1.30;;;21.20;87.00;;;;;;7382165;19;20022;-63
2023/07/03 10:59:20;;;;;;;5.65;1.77;;;21.50;81.20;;;;;;7380461;19;20021;-63
2023/07/03 11:02:17;;;;;;;5.20;1.40;;;21.90;80.90;;;;;;7381449;19;20014;-59
2023/07/03 11:05:03;;;;;;;6.32;1.38;;;21.70;80.80;;;;;;7381470;19;20025;-59
2023/07/03 11:07:39;;;;;;;4.38;1.10;;;21.30;77.80;;;;;;7377714;19;20019;-59
2023/07/03 11:10:21;;;;;;;5.35;1.38;;;21.10;79.50;;;;;;7382945;19;20018;-63
2023/07/03 11:13:06;;;;;;;7.57;1.40;;;20.60;82.20;;;;;;7379703;19;20022;-63
2023/07/03 11:15:59;;;;;;;3.67;1.30;;;20.10;81.70;;;;;;7382551;19;20853;-63
2023/07/03 11:18:38;;;;;;;6.93;1.25;;;19.70;82.80;;;;;;7375813;19;20096;-59
2023/07/03 11:21:36;;;;;;;6.13;1.27;;;19.40;84.90;;;;;;7380789;19;20035;-59
2023/07/03 11:24:29;;;;;;;8.20;1.35;;;19.30;86.80;;;;;;7381229;19;20481;-61
2023/07/03 11:27:02;;;;;;;9.93;1.27;;;19.20;89.40;;;;;;7377550;19;20039;-59
2023/07/03 11:29:29;;;;;;;4.60;1.10;;;19.10;89.10;;;;;;7379770;19;20022;-59
2023/07/03 11:31:57;;;;;;;5.22;1.13;;;19.00;89.30;;;;;;7376280;19;20027;-59
2023/07/03 11:34:25;;;;;;;5.53;1.20;;;19.30;89.10;;;;;;7378640;19;20114;-59
2023/07/03 11:36:57;;;;;;;5.72;1.95;;;19.60;89.60;;;;;;7379114;19;20014;-63
2023/07/03 11:39:29;;;;;;;7.47;1.63;;;20.40;89.70;;;;;;7377578;19;20467;-63
2023/07/03 11:42:11;;;;;;;6.18;1.15;;;21.10;88.50;;;;;;7382825;19;20011;-63
2023/07/03 11:44:46;;;;;;;6.35;1.40;;;21.90;85.90;;;;;;7383535;19;20073;-64
2023/07/03 11:47:33;;;;;;;5.95;1.20;;;22.50;83.30;;;;;;7377282;19;20015;-63
2023/07/03 11:50:01;;;;;;;5.30;1.35;;;22.80;78.20;;;;;;7383196;19;20374;-64
2023/07/03 11:52:35;;;;;;;5.30;1.30;;;23.10;75.30;;;;;;7383196;19;20041;-64
2023/07/03 11:55:10;;;;;;;3.78;1.33;;;23.40;75.10;;;;;;7381658;19;20503;-64
2023/07/03 11:57:39;;;;;;;5.05;1.30;;;23.40;74.80;;;;;;7379670;19;20018;-64
2023/07/03 12:00:18;;;;;;;5.00;1.08;;;22.60;72.90;;;;;;7380344;19;20074;-64
2023/07/03 12:02:55;;;;;;;5.88;1.58;;;22.10;73.80;;;;;;7382780;19;20018;-64
2023/07/03 12:05:43;;;;;;;4.75;0.90;;;21.70;74.40;;;;;;7380921;19;20465;-64
2023/07/03 12:08:18;;;;;;;5.18;1.55;;;22.20;74.50;;;;;;7379927;19;20030;-64
2023/07/03 12:10:52;;;;;;;3.35;1.17;;;22.10;74.30;;;;;;7381424;19;20636;-64
2023/07/03 12:13:37;;;;;;;6.45;1.20;;;23.00;76.10;;;;;;7378775;19;20022;-64
2023/07/03 12:16:17;;;;;;;6.32;1.10;;;22.90;69.70;;;;;;7380433;19;20015;-59
2023/07/03 12:18:44;;;;;;;9.45;1.45;;;23.10;69.50;;;;;;7380162;19;20026;-60
2023/07/03 12:21:12;;;;;;;7.40;1.30;;;22.50;68.60;;;;;;7378558;19;20015;-64
2023/07/03 12:23:38;;;;;;;5.20;1.45;;;22.50;70.30;;;;;;7381186;19;20059;-64
2023/07/03 12:26:07;;;;;;;7.10;1.15;;;22.60;69.50;;;;;;7379957;19;20019;-64
2023/07/03 12:28:34;;;;;;;6.22;1.30;;;22.50;69.20;;;;;;7376172;19;20026;-63
2023/07/03 12:31:16;;;;;;;5.65;1.20;;;22.40;69.20;;;;;;7379475;19;20493;-63
2023/07/03 12:33:59;;;;;;;3.80;1.00;;;22.20;68.30;;;;;;7378816;19;20018;-59
2023/07/03 12:36:31;;;;;;;4.18;1.15;;;22.90;68.10;;;;;;7375230;19;20015;-59
2023/07/03 12:39:11;;;;;;;5.28;1.20;;;23.30;67.90;;;;;;7374025;19;20015;-59
2023/07/03 12:41:37;;;;;;;5.68;1.27;;;23.00;65.80;;;;;;7373204;19;20601;-59
2023/07/03 12:44:08;;;;;;;5.15;1.10;;;22.60;66.80;;;;;;7377225;19;20045;-59
2023/07/03 12:46:38;;;;;;;6.35;1.27;;;22.40;65.30;;;;;;7378857;19;20013;-59
2023/07/03 12:49:14;;;;;;;6.15;1.35;;;22.70;65.00;;;;;;7377170;19;20015;-59
2023/07/03 12:51:42;;;;;;;4.25;1.10;;;23.10;63.50;;;;;;7378125;19;20495;-64
2023/07/03 12:54:10;;;;;;;7.30;1.90;;;22.90;65.40;;;;;;7376762;19;20018;-63
2023/07/03 12:56:38;;;;;;;5.47;1.30;;;22.60;66.70;;;;;;7374508;19;20018;-60
2023/07/03 12:59:07;;;;;;;8.68;1.60;;;22.00;67.50;;;;;;7372855;19;20026;-59